sensor_id;sensor_type;location;lat;lon;timestamp;temperature;humidity
83019;DHT22;72834;40.104;18.336;2023-09-19T00:01:40;25.50;99.90
83019;DHT22;72834;40.104;18.336;2023-09-19T00:04:08;25.50;99.90
83019;DHT22;72834;40.104;18.336;2023-09-19T00:06:36;25.50;99.90
83019;DHT22;72834;40.104;18.336;2023-09-19T00:09:03;25.50;99.90
83019;DHT22;72834;40.104;18.336;2023-09-19T00:11:29;25.50;99.90
83019;DHT22;72834;40.104;18.336;2023-09-19T00:13:56;25.50;99.90
83019;DHT22;72834;40.104;18.336;2023-09-19T00:16:25;25.40;99.90
83019;DHT22;72834;40.104;18.336;2023-09-19T00:18:51;25.40;99.90
83019;DHT22;72834;40.104;18.336;2023-09-19T00:21:18;25.40;99.90
83019;DHT22;72834;40.104;18.336;2023-09-19T00:23:45;25.30;99.90
83019;DHT22;72834;40.104;18.336;2023-09-19T00:26:11;25.30;99.90
83019;DHT22;72834;40.104;18.336;2023-09-19T00:28:38;25.20;99.90
83019;DHT22;72834;40.104;18.336;2023-09-19T00:31:08;25.20;99.90
83019;DHT22;72834;40.104;18.336;2023-09-19T00:33:34;25.20;99.90
83019;DHT22;72834;40.104;18.336;2023-09-19T00:36:00;25.20;99.90
83019;DHT22;72834;40.104;18.336;2023-09-19T00:38:30;25.20;99.90
83019;DHT22;72834;40.104;18.336;2023-09-19T00:40:57;25.30;99.90
83019;DHT22;72834;40.104;18.336;2023-09-19T00:43:27;25.20;99.90
83019;DHT22;72834;40.104;18.336;2023-09-19T00:45:54;25.20;99.90
83019;DHT22;72834;40.104;18.336;2023-09-19T00:48:22;25.20;99.90
83019;DHT22;72834;40.104;18.336;2023-09-19T00:50:49;25.10;99.90
83019;DHT22;72834;40.104;18.336;2023-09-19T00:53:21;25.10;99.90
83019;DHT22;72834;40.104;18.336;2023-09-19T00:55:49;25.10;99.90
83019;DHT22;72834;40.104;18.336;2023-09-19T00:58:42;25.10;99.90
83019;DHT22;72834;40.104;18.336;2023-09-19T01:01:19;25.00;99.90
83019;DHT22;72834;40.104;18.336;2023-09-19T01:03:45;25.00;99.90
83019;DHT22;72834;40.104;18.336;2023-09-19T01:06:11;25.00;99.90
83019;DHT22;72834;40.104;18.336;2023-09-19T01:08:37;25.00;99.90
83019;DHT22;72834;40.104;18.336;2023-09-19T01:11:13;25.00;99.90
83019;DHT22;72834;40.104;18.336;2023-09-19T01:16:46;25.10;99.90
83019;DHT22;72834;40.104;18.336;2023-09-19T01:30:39;24.90;99.90
83019;DHT22;72834;40.104;18.336;2023-09-19T01:33:06;25.00;99.90
83019;DHT22;72834;40.104;18.336;2023-09-19T01:35:33;25.00;99.90
83019;DHT22;72834;40.104;18.336;2023-09-19T01:38:00;25.00;99.90
83019;DHT22;72834;40.104;18.336;2023-09-19T01:40:25;24.90;99.90
83019;DHT22;72834;40.104;18.336;2023-09-19T01:42:58;25.00;99.90
83019;DHT22;72834;40.104;18.336;2023-09-19T01:45:49;24.90;99.90
83019;DHT22;72834;40.104;18.336;2023-09-19T01:51:09;24.80;99.90
83019;DHT22;72834;40.104;18.336;2023-09-19T01:54:02;24.90;99.90
83019;DHT22;72834;40.104;18.336;2023-09-19T01:56:34;24.90;99.90
83019;DHT22;72834;40.104;18.336;2023-09-19T01:59:10;24.90;99.90
83019;DHT22;72834;40.104;18.336;2023-09-19T02:01:37;24.80;99.90
83019;DHT22;72834;40.104;18.336;2023-09-19T02:04:04;24.80;99.90
83019;DHT22;72834;40.104;18.336;2023-09-19T02:06:31;24.80;99.90
83019;DHT22;72834;40.104;18.336;2023-09-19T02:08:57;24.80;99.90
83019;DHT22;72834;40.104;18.336;2023-09-19T02:11:25;24.80;99.90
83019;DHT22;72834;40.104;18.336;2023-09-19T02:13:51;24.80;99.90
83019;DHT22;72834;40.104;18.336;2023-09-19T02:16:20;24.80;99.90
83019;DHT22;72834;40.104;18.336;2023-09-19T02:18:48;24.80;99.90
83019;DHT22;72834;40.104;18.336;2023-09-19T02:21:16;24.70;99.90
83019;DHT22;72834;40.104;18.336;2023-09-19T02:23:44;24.80;99.90
83019;DHT22;72834;40.104;18.336;2023-09-19T02:26:10;24.80;99.90
83019;DHT22;72834;40.104;18.336;2023-09-19T02:28:37;24.80;99.90
83019;DHT22;72834;40.104;18.336;2023-09-19T02:31:03;24.80;99.90
83019;DHT22;72834;40.104;18.336;2023-09-19T02:33:31;24.80;99.90
83019;DHT22;72834;40.104;18.336;2023-09-19T02:36:01;24.80;99.90
83019;DHT22;72834;40.104;18.336;2023-09-19T02:38:29;24.80;99.90
83019;DHT22;72834;40.104;18.336;2023-09-19T02:40:55;24.80;99.90
83019;DHT22;72834;40.104;18.336;2023-09-19T02:43:22;24.80;99.90
83019;DHT22;72834;40.104;18.336;2023-09-19T02:45:49;24.70;99.90
83019;DHT22;72834;40.104;18.336;2023-09-19T02:48:21;24.70;99.90
83019;DHT22;72834;40.104;18.336;2023-09-19T02:50:49;24.70;99.90
83019;DHT22;72834;40.104;18.336;2023-09-19T02:53:15;24.70;99.90
83019;DHT22;72834;40.104;18.336;2023-09-19T02:55:42;24.60;99.90
83019;DHT22;72834;40.104;18.336;2023-09-19T02:58:08;24.60;99.90
83019;DHT22;72834;40.104;18.336;2023-09-19T03:00:36;24.70;99.90
83019;DHT22;72834;40.104;18.336;2023-09-19T03:03:03;24.70;99.90
83019;DHT22;72834;40.104;18.336;2023-09-19T03:05:29;24.70;99.90
83019;DHT22;72834;40.104;18.336;2023-09-19T03:07:58;24.70;99.90
83019;DHT22;72834;40.104;18.336;2023-09-19T03:10:27;24.70;99.90
83019;DHT22;72834;40.104;18.336;2023-09-19T03:12:54;24.70;99.90
83019;DHT22;72834;40.104;18.336;2023-09-19T03:15:20;24.60;99.90
83019;DHT22;72834;40.104;18.336;2023-09-19T03:17:48;24.60;99.90
83019;DHT22;72834;40.104;18.336;2023-09-19T03:20:15;24.50;99.90
83019;DHT22;72834;40.104;18.336;2023-09-19T03:22:43;24.50;99.90
83019;DHT22;72834;40.104;18.336;2023-09-19T03:25:09;24.50;99.90
83019;DHT22;72834;40.104;18.336;2023-09-19T03:27:40;24.50;99.90
83019;DHT22;72834;40.104;18.336;2023-09-19T03:30:07;24.50;99.90
83019;DHT22;72834;40.104;18.336;2023-09-19T03:32:35;24.50;99.90
83019;DHT22;72834;40.104;18.336;2023-09-19T03:35:02;24.50;99.90
83019;DHT22;72834;40.104;18.336;2023-09-19T03:37:31;24.40;99.90
83019;DHT22;72834;40.104;18.336;2023-09-19T03:39:57;24.40;99.90
83019;DHT22;72834;40.104;18.336;2023-09-19T03:42:24;24.50;99.90
83019;DHT22;72834;40.104;18.336;2023-09-19T03:44:52;24.40;99.90
83019;DHT22;72834;40.104;18.336;2023-09-19T03:47:18;24.40;99.90
83019;DHT22;72834;40.104;18.336;2023-09-19T03:49:47;24.40;99.90
83019;DHT22;72834;40.104;18.336;2023-09-19T03:52:13;24.40;99.90
83019;DHT22;72834;40.104;18.336;2023-09-19T03:54:41;24.40;99.90
83019;DHT22;72834;40.104;18.336;2023-09-19T03:57:08;24.40;99.90
83019;DHT22;72834;40.104;18.336;2023-09-19T03:59:35;24.30;99.90
83019;DHT22;72834;40.104;18.336;2023-09-19T04:02:01;24.30;99.90
83019;DHT22;72834;40.104;18.336;2023-09-19T04:04:27;24.20;99.90
83019;DHT22;72834;40.104;18.336;2023-09-19T04:06:55;24.20;99.90
83019;DHT22;72834;40.104;18.336;2023-09-19T04:09:21;24.20;99.90
83019;DHT22;72834;40.104;18.336;2023-09-19T04:11:47;24.20;99.90
83019;DHT22;72834;40.104;18.336;2023-09-19T04:14:15;24.20;99.90
83019;DHT22;72834;40.104;18.336;2023-09-19T04:16:41;24.10;99.90
83019;DHT22;72834;40.104;18.336;2023-09-19T04:19:07;24.10;99.90
83019;DHT22;72834;40.104;18.336;2023-09-19T04:21:33;24.10;99.90
83019;DHT22;72834;40.104;18.336;2023-09-19T04:23:59;24.10;99.90
83019;DHT22;72834;40.104;18.336;2023-09-19T04:26:24;24.20;99.90
83019;DHT22;72834;40.104;18.336;2023-09-19T04:28:51;24.20;99.90
83019;DHT22;72834;40.104;18.336;2023-09-19T04:31:17;24.20;99.90
83019;DHT22;72834;40.104;18.336;2023-09-19T04:33:45;24.20;99.90
83019;DHT22;72834;40.104;18.336;2023-09-19T04:36:10;24.20;99.90
83019;DHT22;72834;40.104;18.336;2023-09-19T04:38:38;24.20;99.90
83019;DHT22;72834;40.104;18.336;2023-09-19T04:41:04;24.20;99.90
83019;DHT22;72834;40.104;18.336;2023-09-19T04:43:30;24.10;99.90
83019;DHT22;72834;40.104;18.336;2023-09-19T04:45:56;24.10;99.90
83019;DHT22;72834;40.104;18.336;2023-09-19T04:48:22;24.10;99.90
83019;DHT22;72834;40.104;18.336;2023-09-19T04:50:51;24.00;99.90
83019;DHT22;72834;40.104;18.336;2023-09-19T04:53:18;24.00;99.90
83019;DHT22;72834;40.104;18.336;2023-09-19T04:55:50;24.00;99.90
83019;DHT22;72834;40.104;18.336;2023-09-19T04:58:17;24.00;99.90
83019;DHT22;72834;40.104;18.336;2023-09-19T05:00:43;24.10;99.90
83019;DHT22;72834;40.104;18.336;2023-09-19T05:03:09;24.00;99.90
83019;DHT22;72834;40.104;18.336;2023-09-19T05:05:35;24.10;99.90
83019;DHT22;72834;40.104;18.336;2023-09-19T05:08:01;24.10;99.90
83019;DHT22;72834;40.104;18.336;2023-09-19T05:10:31;24.10;99.90
83019;DHT22;72834;40.104;18.336;2023-09-19T05:12:57;24.10;99.90
83019;DHT22;72834;40.104;18.336;2023-09-19T05:15:23;24.10;99.90
83019;DHT22;72834;40.104;18.336;2023-09-19T05:17:50;24.20;99.90
83019;DHT22;72834;40.104;18.336;2023-09-19T05:20:17;24.20;99.90
83019;DHT22;72834;40.104;18.336;2023-09-19T05:23:04;24.20;99.90
83019;DHT22;72834;40.104;18.336;2023-09-19T05:25:40;24.30;99.90
83019;DHT22;72834;40.104;18.336;2023-09-19T05:28:07;24.30;99.90
83019;DHT22;72834;40.104;18.336;2023-09-19T05:30:33;24.30;99.90
83019;DHT22;72834;40.104;18.336;2023-09-19T05:33:02;24.30;99.90
83019;DHT22;72834;40.104;18.336;2023-09-19T05:35:30;24.40;99.90
83019;DHT22;72834;40.104;18.336;2023-09-19T05:37:57;24.50;99.90
83019;DHT22;72834;40.104;18.336;2023-09-19T05:40:24;24.50;99.90
83019;DHT22;72834;40.104;18.336;2023-09-19T05:42:51;24.60;99.90
83019;DHT22;72834;40.104;18.336;2023-09-19T05:45:17;24.60;99.90
83019;DHT22;72834;40.104;18.336;2023-09-19T05:47:51;24.60;99.90
83019;DHT22;72834;40.104;18.336;2023-09-19T05:50:21;24.60;99.90
83019;DHT22;72834;40.104;18.336;2023-09-19T05:52:54;24.70;99.90
83019;DHT22;72834;40.104;18.336;2023-09-19T05:55:22;24.80;99.90
83019;DHT22;72834;40.104;18.336;2023-09-19T05:57:51;24.80;99.90
83019;DHT22;72834;40.104;18.336;2023-09-19T06:00:19;24.90;99.90
83019;DHT22;72834;40.104;18.336;2023-09-19T06:02:56;25.00;99.90
83019;DHT22;72834;40.104;18.336;2023-09-19T06:05:23;25.10;99.90
83019;DHT22;72834;40.104;18.336;2023-09-19T06:07:50;25.20;99.90
83019;DHT22;72834;40.104;18.336;2023-09-19T06:10:18;25.30;99.90
83019;DHT22;72834;40.104;18.336;2023-09-19T06:12:44;25.40;99.90
83019;DHT22;72834;40.104;18.336;2023-09-19T06:15:10;25.50;99.90
83019;DHT22;72834;40.104;18.336;2023-09-19T06:17:47;25.60;99.90
83019;DHT22;72834;40.104;18.336;2023-09-19T06:20:14;25.70;99.90
83019;DHT22;72834;40.104;18.336;2023-09-19T06:22:41;25.80;99.90
83019;DHT22;72834;40.104;18.336;2023-09-19T06:25:13;25.90;99.90
83019;DHT22;72834;40.104;18.336;2023-09-19T06:27:54;26.10;99.90
83019;DHT22;72834;40.104;18.336;2023-09-19T06:30:22;26.20;99.90
83019;DHT22;72834;40.104;18.336;2023-09-19T06:32:58;26.30;99.90
83019;DHT22;72834;40.104;18.336;2023-09-19T06:35:25;26.40;99.90
83019;DHT22;72834;40.104;18.336;2023-09-19T06:37:53;26.60;99.90
83019;DHT22;72834;40.104;18.336;2023-09-19T06:40:19;26.70;99.90
83019;DHT22;72834;40.104;18.336;2023-09-19T06:42:46;26.90;99.90
83019;DHT22;72834;40.104;18.336;2023-09-19T06:45:14;27.00;99.90
83019;DHT22;72834;40.104;18.336;2023-09-19T06:47:50;27.20;99.90
83019;DHT22;72834;40.104;18.336;2023-09-19T06:50:17;27.40;99.90
83019;DHT22;72834;40.104;18.336;2023-09-19T06:52:51;27.60;99.90
83019;DHT22;72834;40.104;18.336;2023-09-19T06:55:19;27.80;99.90
83019;DHT22;72834;40.104;18.336;2023-09-19T06:57:46;28.00;99.90
83019;DHT22;72834;40.104;18.336;2023-09-19T07:00:13;28.20;99.90
83019;DHT22;72834;40.104;18.336;2023-09-19T07:03:01;28.40;99.90
83019;DHT22;72834;40.104;18.336;2023-09-19T07:05:30;28.50;99.90
83019;DHT22;72834;40.104;18.336;2023-09-19T07:07:59;28.70;99.90
83019;DHT22;72834;40.104;18.336;2023-09-19T07:10:27;28.90;99.90
83019;DHT22;72834;40.104;18.336;2023-09-19T07:12:57;29.00;99.90
83019;DHT22;72834;40.104;18.336;2023-09-19T07:15:27;29.20;99.90
83019;DHT22;72834;40.104;18.336;2023-09-19T07:17:54;29.40;99.90
83019;DHT22;72834;40.104;18.336;2023-09-19T07:20:23;29.60;99.90
83019;DHT22;72834;40.104;18.336;2023-09-19T07:22:51;29.70;99.90
83019;DHT22;72834;40.104;18.336;2023-09-19T07:25:17;29.80;99.90
83019;DHT22;72834;40.104;18.336;2023-09-19T07:27:43;30.00;99.90
83019;DHT22;72834;40.104;18.336;2023-09-19T07:30:10;30.10;99.90
83019;DHT22;72834;40.104;18.336;2023-09-19T07:32:38;30.30;99.90
83019;DHT22;72834;40.104;18.336;2023-09-19T07:35:04;30.40;99.90
83019;DHT22;72834;40.104;18.336;2023-09-19T07:37:34;30.50;99.90
83019;DHT22;72834;40.104;18.336;2023-09-19T07:40:05;30.60;99.90
83019;DHT22;72834;40.104;18.336;2023-09-19T07:42:38;30.70;99.90
83019;DHT22;72834;40.104;18.336;2023-09-19T07:45:09;30.70;99.90
83019;DHT22;72834;40.104;18.336;2023-09-19T07:47:35;30.90;99.90
83019;DHT22;72834;40.104;18.336;2023-09-19T07:50:02;30.90;99.90
83019;DHT22;72834;40.104;18.336;2023-09-19T07:52:29;31.00;99.90
83019;DHT22;72834;40.104;18.336;2023-09-19T07:54:55;31.10;99.90
83019;DHT22;72834;40.104;18.336;2023-09-19T07:57:23;31.10;99.90
83019;DHT22;72834;40.104;18.336;2023-09-19T07:59:49;31.20;99.90
83019;DHT22;72834;40.104;18.336;2023-09-19T08:02:14;31.20;99.90
83019;DHT22;72834;40.104;18.336;2023-09-19T08:04:44;31.30;99.90
83019;DHT22;72834;40.104;18.336;2023-09-19T08:07:12;31.40;99.90
83019;DHT22;72834;40.104;18.336;2023-09-19T08:09:41;31.50;99.90
83019;DHT22;72834;40.104;18.336;2023-09-19T08:12:07;31.60;99.90
83019;DHT22;72834;40.104;18.336;2023-09-19T08:14:36;31.60;99.90
83019;DHT22;72834;40.104;18.336;2023-09-19T08:17:03;31.80;99.90
83019;DHT22;72834;40.104;18.336;2023-09-19T08:19:34;31.80;99.90
83019;DHT22;72834;40.104;18.336;2023-09-19T08:22:00;31.80;99.90
83019;DHT22;72834;40.104;18.336;2023-09-19T08:24:30;31.80;99.90
83019;DHT22;72834;40.104;18.336;2023-09-19T08:26:56;31.90;99.90
83019;DHT22;72834;40.104;18.336;2023-09-19T08:29:23;32.00;99.90
83019;DHT22;72834;40.104;18.336;2023-09-19T08:31:56;32.00;99.90
83019;DHT22;72834;40.104;18.336;2023-09-19T08:34:23;32.00;99.90
83019;DHT22;72834;40.104;18.336;2023-09-19T08:36:53;32.10;99.90
83019;DHT22;72834;40.104;18.336;2023-09-19T08:39:26;32.10;99.90
83019;DHT22;72834;40.104;18.336;2023-09-19T08:42:01;32.20;99.90
83019;DHT22;72834;40.104;18.336;2023-09-19T08:44:28;32.20;99.90
83019;DHT22;72834;40.104;18.336;2023-09-19T08:47:09;32.20;99.90
83019;DHT22;72834;40.104;18.336;2023-09-19T08:49:47;32.20;99.90
83019;DHT22;72834;40.104;18.336;2023-09-19T08:52:25;32.20;99.90
83019;DHT22;72834;40.104;18.336;2023-09-19T08:54:59;32.20;99.90
83019;DHT22;72834;40.104;18.336;2023-09-19T08:57:36;32.20;99.90
83019;DHT22;72834;40.104;18.336;2023-09-19T09:00:07;32.30;99.90
83019;DHT22;72834;40.104;18.336;2023-09-19T09:02:38;32.30;99.90
83019;DHT22;72834;40.104;18.336;2023-09-19T09:05:11;32.30;99.90
83019;DHT22;72834;40.104;18.336;2023-09-19T09:07:38;32.40;99.90
83019;DHT22;72834;40.104;18.336;2023-09-19T09:10:04;32.40;99.90
83019;DHT22;72834;40.104;18.336;2023-09-19T09:12:30;32.40;99.90
83019;DHT22;72834;40.104;18.336;2023-09-19T09:14:56;32.40;99.90
83019;DHT22;72834;40.104;18.336;2023-09-19T09:17:26;32.40;99.90
83019;DHT22;72834;40.104;18.336;2023-09-19T09:19:53;32.40;99.90
83019;DHT22;72834;40.104;18.336;2023-09-19T09:22:19;32.50;99.90
83019;DHT22;72834;40.104;18.336;2023-09-19T09:24:58;32.50;99.90
83019;DHT22;72834;40.104;18.336;2023-09-19T09:27:27;32.60;99.90
83019;DHT22;72834;40.104;18.336;2023-09-19T09:29:53;32.50;99.90
83019;DHT22;72834;40.104;18.336;2023-09-19T09:32:24;32.50;99.90
83019;DHT22;72834;40.104;18.336;2023-09-19T09:34:58;32.50;99.90
83019;DHT22;72834;40.104;18.336;2023-09-19T09:37:25;32.50;99.90
83019;DHT22;72834;40.104;18.336;2023-09-19T09:40:01;32.50;99.90
83019;DHT22;72834;40.104;18.336;2023-09-19T09:42:43;32.60;99.90
83019;DHT22;72834;40.104;18.336;2023-09-19T09:45:20;32.60;99.90
83019;DHT22;72834;40.104;18.336;2023-09-19T09:48:01;32.60;99.90
83019;DHT22;72834;40.104;18.336;2023-09-19T09:50:47;32.70;99.90
83019;DHT22;72834;40.104;18.336;2023-09-19T09:53:26;32.80;99.90
83019;DHT22;72834;40.104;18.336;2023-09-19T09:56:05;32.90;99.90
83019;DHT22;72834;40.104;18.336;2023-09-19T09:58:36;33.00;99.90
83019;DHT22;72834;40.104;18.336;2023-09-19T10:01:03;33.10;99.90
83019;DHT22;72834;40.104;18.336;2023-09-19T10:03:41;33.20;99.90
83019;DHT22;72834;40.104;18.336;2023-09-19T10:06:16;33.30;99.90
83019;DHT22;72834;40.104;18.336;2023-09-19T10:09:08;33.40;99.90
83019;DHT22;72834;40.104;18.336;2023-09-19T10:11:45;33.50;99.90
83019;DHT22;72834;40.104;18.336;2023-09-19T10:14:13;33.60;99.90
83019;DHT22;72834;40.104;18.336;2023-09-19T10:16:45;33.80;99.90
83019;DHT22;72834;40.104;18.336;2023-09-19T10:19:23;34.00;99.90
83019;DHT22;72834;40.104;18.336;2023-09-19T10:21:50;34.20;99.90
83019;DHT22;72834;40.104;18.336;2023-09-19T10:24:20;34.40;99.90
83019;DHT22;72834;40.104;18.336;2023-09-19T10:26:47;34.70;99.90
83019;DHT22;72834;40.104;18.336;2023-09-19T10:29:17;35.10;99.90
83019;DHT22;72834;40.104;18.336;2023-09-19T10:31:47;35.60;99.90
83019;DHT22;72834;40.104;18.336;2023-09-19T10:34:17;36.10;99.90
83019;DHT22;72834;40.104;18.336;2023-09-19T10:36:46;37.10;99.90
83019;DHT22;72834;40.104;18.336;2023-09-19T10:39:16;37.90;99.90
83019;DHT22;72834;40.104;18.336;2023-09-19T10:41:50;39.10;99.90
83019;DHT22;72834;40.104;18.336;2023-09-19T10:44:25;40.70;99.90
83019;DHT22;72834;40.104;18.336;2023-09-19T10:46:52;42.40;99.90
83019;DHT22;72834;40.104;18.336;2023-09-19T10:49:22;44.10;99.90
83019;DHT22;72834;40.104;18.336;2023-09-19T10:51:53;45.50;99.90
83019;DHT22;72834;40.104;18.336;2023-09-19T10:54:30;46.00;99.90
83019;DHT22;72834;40.104;18.336;2023-09-19T10:56:58;46.40;99.90
83019;DHT22;72834;40.104;18.336;2023-09-19T10:59:25;47.70;98.60
83019;DHT22;72834;40.104;18.336;2023-09-19T11:01:57;48.70;95.40
83019;DHT22;72834;40.104;18.336;2023-09-19T11:04:32;49.70;92.20
83019;DHT22;72834;40.104;18.336;2023-09-19T11:09:47;51.80;81.50
83019;DHT22;72834;40.104;18.336;2023-09-19T11:27:09;55.00;59.60
83019;DHT22;72834;40.104;18.336;2023-09-19T11:29:36;55.30;58.30
83019;DHT22;72834;40.104;18.336;2023-09-19T11:32:03;55.40;57.40
83019;DHT22;72834;40.104;18.336;2023-09-19T11:39:38;55.40;55.20
83019;DHT22;72834;40.104;18.336;2023-09-19T11:45:13;55.20;54.40
83019;DHT22;72834;40.104;18.336;2023-09-19T11:47:56;55.20;53.90
83019;DHT22;72834;40.104;18.336;2023-09-19T11:50:24;54.90;54.10
83019;DHT22;72834;40.104;18.336;2023-09-19T11:52:52;53.70;54.70
83019;DHT22;72834;40.104;18.336;2023-09-19T11:55:21;51.70;56.40
83019;DHT22;72834;40.104;18.336;2023-09-19T11:57:49;49.30;58.60
83019;DHT22;72834;40.104;18.336;2023-09-19T12:00:19;46.40;62.40
83019;DHT22;72834;40.104;18.336;2023-09-19T12:02:48;44.50;67.00
83019;DHT22;72834;40.104;18.336;2023-09-19T12:05:19;42.90;70.40
83019;DHT22;72834;40.104;18.336;2023-09-19T12:07:53;41.80;74.70
83019;DHT22;72834;40.104;18.336;2023-09-19T12:10:20;40.70;78.50
83019;DHT22;72834;40.104;18.336;2023-09-19T12:12:48;40.00;83.30
83019;DHT22;72834;40.104;18.336;2023-09-19T12:15:28;39.30;87.50
83019;DHT22;72834;40.104;18.336;2023-09-19T12:18:00;38.60;91.00
83019;DHT22;72834;40.104;18.336;2023-09-19T12:20:42;38.10;93.40
83019;DHT22;72834;40.104;18.336;2023-09-19T12:23:14;37.50;95.90
83019;DHT22;72834;40.104;18.336;2023-09-19T12:25:44;37.10;98.60
83019;DHT22;72834;40.104;18.336;2023-09-19T12:28:13;36.80;99.90
83019;DHT22;72834;40.104;18.336;2023-09-19T12:30:40;36.40;99.90
83019;DHT22;72834;40.104;18.336;2023-09-19T12:33:20;36.20;99.90
83019;DHT22;72834;40.104;18.336;2023-09-19T12:35:47;35.90;99.90
83019;DHT22;72834;40.104;18.336;2023-09-19T12:38:28;35.70;99.90
83019;DHT22;72834;40.104;18.336;2023-09-19T12:40:57;35.50;99.90
83019;DHT22;72834;40.104;18.336;2023-09-19T12:43:27;35.20;99.90
83019;DHT22;72834;40.104;18.336;2023-09-19T12:45:53;35.10;99.90
83019;DHT22;72834;40.104;18.336;2023-09-19T12:48:24;34.90;99.90
83019;DHT22;72834;40.104;18.336;2023-09-19T12:51:08;34.80;99.90
83019;DHT22;72834;40.104;18.336;2023-09-19T12:53:43;34.60;99.90
83019;DHT22;72834;40.104;18.336;2023-09-19T12:56:12;34.50;99.90
83019;DHT22;72834;40.104;18.336;2023-09-19T12:58:56;34.40;99.90
83019;DHT22;72834;40.104;18.336;2023-09-19T13:01:23;34.30;99.90
83019;DHT22;72834;40.104;18.336;2023-09-19T13:04:15;34.30;99.90
83019;DHT22;72834;40.104;18.336;2023-09-19T13:06:49;34.20;99.90
83019;DHT22;72834;40.104;18.336;2023-09-19T13:09:17;34.10;99.90
83019;DHT22;72834;40.104;18.336;2023-09-19T13:11:43;34.00;99.90
83019;DHT22;72834;40.104;18.336;2023-09-19T13:14:25;33.90;99.90
83019;DHT22;72834;40.104;18.336;2023-09-19T13:17:04;33.80;99.90
83019;DHT22;72834;40.104;18.336;2023-09-19T13:19:44;33.70;99.90
83019;DHT22;72834;40.104;18.336;2023-09-19T13:22:42;33.60;99.90
83019;DHT22;72834;40.104;18.336;2023-09-19T13:27:45;33.40;99.90
83019;DHT22;72834;40.104;18.336;2023-09-19T13:30:12;33.40;99.90
83019;DHT22;72834;40.104;18.336;2023-09-19T13:32:39;33.30;99.90
83019;DHT22;72834;40.104;18.336;2023-09-19T13:35:07;33.30;99.90
83019;DHT22;72834;40.104;18.336;2023-09-19T13:37:37;33.30;99.90
83019;DHT22;72834;40.104;18.336;2023-09-19T13:40:15;33.20;99.90
83019;DHT22;72834;40.104;18.336;2023-09-19T13:42:42;33.20;99.90
83019;DHT22;72834;40.104;18.336;2023-09-19T13:45:08;33.20;99.90
83019;DHT22;72834;40.104;18.336;2023-09-19T13:47:38;33.10;99.90
83019;DHT22;72834;40.104;18.336;2023-09-19T13:50:04;33.10;99.90
83019;DHT22;72834;40.104;18.336;2023-09-19T13:52:31;33.10;99.90
83019;DHT22;72834;40.104;18.336;2023-09-19T13:54:58;33.00;99.90
83019;DHT22;72834;40.104;18.336;2023-09-19T13:57:25;33.00;99.90
83019;DHT22;72834;40.104;18.336;2023-09-19T13:59:53;33.00;99.90
83019;DHT22;72834;40.104;18.336;2023-09-19T14:02:20;33.00;99.90
83019;DHT22;72834;40.104;18.336;2023-09-19T14:04:53;32.90;99.90
83019;DHT22;72834;40.104;18.336;2023-09-19T14:07:20;32.80;99.90
83019;DHT22;72834;40.104;18.336;2023-09-19T14:09:46;32.70;99.90
83019;DHT22;72834;40.104;18.336;2023-09-19T14:12:14;32.70;99.90
83019;DHT22;72834;40.104;18.336;2023-09-19T14:14:40;32.60;99.90
83019;DHT22;72834;40.104;18.336;2023-09-19T14:17:06;32.50;99.90
83019;DHT22;72834;40.104;18.336;2023-09-19T14:19:33;32.50;99.90
83019;DHT22;72834;40.104;18.336;2023-09-19T14:22:00;32.40;99.90
83019;DHT22;72834;40.104;18.336;2023-09-19T14:24:33;32.30;99.90
83019;DHT22;72834;40.104;18.336;2023-09-19T14:26:59;32.30;99.90
83019;DHT22;72834;40.104;18.336;2023-09-19T14:29:25;32.20;99.90
83019;DHT22;72834;40.104;18.336;2023-09-19T14:31:51;32.10;99.90
83019;DHT22;72834;40.104;18.336;2023-09-19T14:34:17;32.10;99.90
83019;DHT22;72834;40.104;18.336;2023-09-19T14:36:45;32.00;99.90
83019;DHT22;72834;40.104;18.336;2023-09-19T14:39:11;32.00;99.90
83019;DHT22;72834;40.104;18.336;2023-09-19T14:41:37;32.00;99.90
83019;DHT22;72834;40.104;18.336;2023-09-19T14:44:03;31.90;99.90
83019;DHT22;72834;40.104;18.336;2023-09-19T14:46:30;31.90;99.90
83019;DHT22;72834;40.104;18.336;2023-09-19T14:48:56;31.90;99.90
83019;DHT22;72834;40.104;18.336;2023-09-19T14:51:25;31.90;99.90
83019;DHT22;72834;40.104;18.336;2023-09-19T14:53:51;31.80;99.90
83019;DHT22;72834;40.104;18.336;2023-09-19T14:56:18;31.80;99.90
83019;DHT22;72834;40.104;18.336;2023-09-19T14:58:45;31.80;99.90
83019;DHT22;72834;40.104;18.336;2023-09-19T15:01:13;31.70;99.90
83019;DHT22;72834;40.104;18.336;2023-09-19T15:03:41;31.70;99.90
83019;DHT22;72834;40.104;18.336;2023-09-19T15:06:12;31.60;99.90
83019;DHT22;72834;40.104;18.336;2023-09-19T15:08:43;31.60;99.90
83019;DHT22;72834;40.104;18.336;2023-09-19T15:11:17;31.50;99.90
83019;DHT22;72834;40.104;18.336;2023-09-19T15:13:44;31.50;99.90
83019;DHT22;72834;40.104;18.336;2023-09-19T15:16:10;31.50;99.90
83019;DHT22;72834;40.104;18.336;2023-09-19T15:18:38;31.40;99.90
83019;DHT22;72834;40.104;18.336;2023-09-19T15:21:05;31.30;99.90
83019;DHT22;72834;40.104;18.336;2023-09-19T15:23:32;31.30;99.90
83019;DHT22;72834;40.104;18.336;2023-09-19T15:26:06;31.30;99.90
83019;DHT22;72834;40.104;18.336;2023-09-19T15:28:34;31.20;99.90
83019;DHT22;72834;40.104;18.336;2023-09-19T15:31:05;31.20;99.90
83019;DHT22;72834;40.104;18.336;2023-09-19T15:33:33;31.20;99.90
83019;DHT22;72834;40.104;18.336;2023-09-19T15:36:12;31.20;99.90
83019;DHT22;72834;40.104;18.336;2023-09-19T15:41:23;31.00;99.90
83019;DHT22;72834;40.104;18.336;2023-09-19T15:43:49;31.00;99.90
83019;DHT22;72834;40.104;18.336;2023-09-19T15:46:15;30.90;99.90
83019;DHT22;72834;40.104;18.336;2023-09-19T15:48:42;30.90;99.90
83019;DHT22;72834;40.104;18.336;2023-09-19T15:51:08;30.90;99.90
83019;DHT22;72834;40.104;18.336;2023-09-19T15:53:51;30.80;99.90
83019;DHT22;72834;40.104;18.336;2023-09-19T15:56:19;30.70;99.90
83019;DHT22;72834;40.104;18.336;2023-09-19T15:58:49;30.70;99.90
83019;DHT22;72834;40.104;18.336;2023-09-19T16:01:16;30.60;99.90
83019;DHT22;72834;40.104;18.336;2023-09-19T16:03:45;30.50;99.90
83019;DHT22;72834;40.104;18.336;2023-09-19T16:06:20;30.50;99.90
83019;DHT22;72834;40.104;18.336;2023-09-19T16:08:49;30.40;99.90
83019;DHT22;72834;40.104;18.336;2023-09-19T16:11:16;30.40;99.90
83019;DHT22;72834;40.104;18.336;2023-09-19T16:13:43;30.30;99.90
83019;DHT22;72834;40.104;18.336;2023-09-19T16:16:14;30.30;99.90
83019;DHT22;72834;40.104;18.336;2023-09-19T16:18:52;30.20;99.90